sensor_id;sensor_type;location;lat;lon;timestamp;temperature;humidity
14154;DHT22;7157;53.144;7.570;2023-08-24T00:08:20;17.95;91.56
14154;DHT22;7157;53.144;7.570;2023-08-24T00:18:25;17.76;91.79
14154;DHT22;7157;53.144;7.570;2023-08-24T00:28:28;17.61;91.85
14154;DHT22;7157;53.144;7.570;2023-08-24T00:38:32;17.35;92.03
14154;DHT22;7157;53.144;7.570;2023-08-24T00:48:35;17.23;92.22
14154;DHT22;7157;53.144;7.570;2023-08-24T00:58:39;17.04;93.74
14154;DHT22;7157;53.144;7.570;2023-08-24T01:08:42;17.13;92.43
14154;DHT22;7157;53.144;7.570;2023-08-24T01:18:47;16.95;92.50
14154;DHT22;7157;53.144;7.570;2023-08-24T01:28:52;16.78;92.93
14154;DHT22;7157;53.144;7.570;2023-08-24T01:39:06;16.57;93.43
14154;DHT22;7157;53.144;7.570;2023-08-24T01:49:12;16.60;93.39
14154;DHT22;7157;53.144;7.570;2023-08-24T01:59:16;16.62;93.81
14154;DHT22;7157;53.144;7.570;2023-08-24T02:09:20;16.76;93.43
14154;DHT22;7157;53.144;7.570;2023-08-24T02:19:23;16.82;93.34
14154;DHT22;7157;53.144;7.570;2023-08-24T02:29:27;16.79;93.88
14154;DHT22;7157;53.144;7.570;2023-08-24T02:39:31;16.84;93.81
14154;DHT22;7157;53.144;7.570;2023-08-24T02:49:35;16.81;94.01
14154;DHT22;7157;53.144;7.570;2023-08-24T02:59:38;16.70;94.54
14154;DHT22;7157;53.144;7.570;2023-08-24T03:09:46;16.60;95.03
14154;DHT22;7157;53.144;7.570;2023-08-24T03:19:49;16.65;95.20
14154;DHT22;7157;53.144;7.570;2023-08-24T03:29:53;16.73;95.27
14154;DHT22;7157;53.144;7.570;2023-08-24T03:39:56;16.82;95.17
14154;DHT22;7157;53.144;7.570;2023-08-24T03:50:00;16.94;95.45
14154;DHT22;7157;53.144;7.570;2023-08-24T04:00:04;17.01;95.95
14154;DHT22;7157;53.144;7.570;2023-08-24T04:10:14;16.89;95.99
14154;DHT22;7157;53.144;7.570;2023-08-24T04:20:17;16.74;96.07
14154;DHT22;7157;53.144;7.570;2023-08-24T04:30:21;16.63;96.39
14154;DHT22;7157;53.144;7.570;2023-08-24T04:40:24;16.66;96.49
14154;DHT22;7157;53.144;7.570;2023-08-24T04:50:28;16.71;96.80
14154;DHT22;7157;53.144;7.570;2023-08-24T05:00:31;16.90;96.80
14154;DHT22;7157;53.144;7.570;2023-08-24T05:10:36;17.07;96.99
14154;DHT22;7157;53.144;7.570;2023-08-24T05:20:39;17.25;97.13
14154;DHT22;7157;53.144;7.570;2023-08-24T05:30:44;17.47;96.95
14154;DHT22;7157;53.144;7.570;2023-08-24T05:40:48;17.58;96.84
14154;DHT22;7157;53.144;7.570;2023-08-24T05:50:52;17.59;97.42
14154;DHT22;7157;53.144;7.570;2023-08-24T06:00:56;17.73;97.64
14154;DHT22;7157;53.144;7.570;2023-08-24T06:11:01;18.19;97.54
14154;DHT22;7157;53.144;7.570;2023-08-24T06:21:04;18.49;97.03
14154;DHT22;7157;53.144;7.570;2023-08-24T06:31:08;18.86;96.60
14154;DHT22;7157;53.144;7.570;2023-08-24T06:41:10;19.17;95.97
14154;DHT22;7157;53.144;7.570;2023-08-24T06:51:15;19.17;95.63
14154;DHT22;7157;53.144;7.570;2023-08-24T07:01:18;19.53;95.28
14154;DHT22;7157;53.144;7.570;2023-08-24T07:11:22;19.95;94.18
14154;DHT22;7157;53.144;7.570;2023-08-24T07:21:25;20.19;93.14
14154;DHT22;7157;53.144;7.570;2023-08-24T07:31:29;20.42;92.27
14154;DHT22;7157;53.144;7.570;2023-08-24T07:41:32;20.72;91.24
14154;DHT22;7157;53.144;7.570;2023-08-24T07:51:36;21.02;90.19
14154;DHT22;7157;53.144;7.570;2023-08-24T08:01:39;21.43;89.09
14154;DHT22;7157;53.144;7.570;2023-08-24T08:11:43;21.73;87.21
14154;DHT22;7157;53.144;7.570;2023-08-24T08:21:47;22.08;84.91
14154;DHT22;7157;53.144;7.570;2023-08-24T08:31:51;22.53;82.36
14154;DHT22;7157;53.144;7.570;2023-08-24T08:41:54;22.86;81.06
14154;DHT22;7157;53.144;7.570;2023-08-24T08:51:58;23.49;79.06
14154;DHT22;7157;53.144;7.570;2023-08-24T09:02:02;23.50;78.08
14154;DHT22;7157;53.144;7.570;2023-08-24T09:12:07;23.73;75.86
14154;DHT22;7157;53.144;7.570;2023-08-24T09:22:09;24.11;75.38
14154;DHT22;7157;53.144;7.570;2023-08-24T09:32:13;24.66;74.36
14154;DHT22;7157;53.144;7.570;2023-08-24T09:42:24;25.29;71.63
14154;DHT22;7157;53.144;7.570;2023-08-24T09:52:32;25.46;69.16
14154;DHT22;7157;53.144;7.570;2023-08-24T10:02:36;25.35;68.23
14154;DHT22;7157;53.144;7.570;2023-08-24T10:12:44;25.62;67.50
14154;DHT22;7157;53.144;7.570;2023-08-24T10:22:50;25.82;67.51
14154;DHT22;7157;53.144;7.570;2023-08-24T10:32:55;25.95;67.38
14154;DHT22;7157;53.144;7.570;2023-08-24T10:43:02;25.98;67.33
14154;DHT22;7157;53.144;7.570;2023-08-24T10:53:07;25.93;66.72
14154;DHT22;7157;53.144;7.570;2023-08-24T11:03:30;26.21;65.98
14154;DHT22;7157;53.144;7.570;2023-08-24T11:13:35;26.61;65.10
14154;DHT22;7157;53.144;7.570;2023-08-24T11:23:38;26.79;63.56
14154;DHT22;7157;53.144;7.570;2023-08-24T11:33:42;28.64;59.12
14154;DHT22;7157;53.144;7.570;2023-08-24T11:43:47;29.52;54.65
14154;DHT22;7157;53.144;7.570;2023-08-24T11:53:53;30.94;50.43
14154;DHT22;7157;53.144;7.570;2023-08-24T12:03:56;29.65;52.43
14154;DHT22;7157;53.144;7.570;2023-08-24T12:14:00;28.05;56.18
14154;DHT22;7157;53.144;7.570;2023-08-24T12:24:05;28.32;56.03
14154;DHT22;7157;53.144;7.570;2023-08-24T12:34:09;27.49;56.61
14154;DHT22;7157;53.144;7.570;2023-08-24T12:44:12;27.19;56.98
14154;DHT22;7157;53.144;7.570;2023-08-24T12:54:17;26.66;59.39
14154;DHT22;7157;53.144;7.570;2023-08-24T13:04:20;26.58;60.05
14154;DHT22;7157;53.144;7.570;2023-08-24T13:14:24;26.40;61.86
14154;DHT22;7157;53.144;7.570;2023-08-24T13:24:27;26.49;62.20
14154;DHT22;7157;53.144;7.570;2023-08-24T13:34:31;27.16;60.54
14154;DHT22;7157;53.144;7.570;2023-08-24T13:44:34;27.27;58.55
14154;DHT22;7157;53.144;7.570;2023-08-24T13:54:38;26.79;61.05
14154;DHT22;7157;53.144;7.570;2023-08-24T14:04:41;26.84;61.96
14154;DHT22;7157;53.144;7.570;2023-08-24T14:14:45;26.65;62.81
14154;DHT22;7157;53.144;7.570;2023-08-24T14:24:47;26.40;62.82
14154;DHT22;7157;53.144;7.570;2023-08-24T14:34:52;26.19;63.69
14154;DHT22;7157;53.144;7.570;2023-08-24T14:44:54;25.94;65.25
14154;DHT22;7157;53.144;7.570;2023-08-24T14:54:58;25.78;65.78
14154;DHT22;7157;53.144;7.570;2023-08-24T15:05:01;25.68;66.86
14154;DHT22;7157;53.144;7.570;2023-08-24T15:15:06;25.34;71.77
14154;DHT22;7157;53.144;7.570;2023-08-24T15:25:09;24.97;75.70
14154;DHT22;7157;53.144;7.570;2023-08-24T15:35:13;24.73;77.30
14154;DHT22;7157;53.144;7.570;2023-08-24T15:45:16;24.57;78.13
14154;DHT22;7157;53.144;7.570;2023-08-24T15:55:20;24.62;78.40
14154;DHT22;7157;53.144;7.570;2023-08-24T16:05:23;24.60;79.42
14154;DHT22;7157;53.144;7.570;2023-08-24T16:15:27;24.42;80.90
14154;DHT22;7157;53.144;7.570;2023-08-24T16:25:30;24.24;82.20
14154;DHT22;7157;53.144;7.570;2023-08-24T16:35:35;23.97;83.77
14154;DHT22;7157;53.144;7.570;2023-08-24T16:45:38;23.91;84.01
14154;DHT22;7157;53.144;7.570;2023-08-24T16:55:42;24.00;83.47
14154;DHT22;7157;53.144;7.570;2023-08-24T17:05:45;23.87;83.36
14154;DHT22;7157;53.144;7.570;2023-08-24T17:15:49;23.84;83.14
14154;DHT22;7157;53.144;7.570;2023-08-24T17:25:54;23.71;83.71
14154;DHT22;7157;53.144;7.570;2023-08-24T17:35:58;23.50;85.88
14154;DHT22;7157;53.144;7.570;2023-08-24T17:46:01;22.77;91.85
14154;DHT22;7157;53.144;7.570;2023-08-24T17:56:05;22.62;93.68
14154;DHT22;7157;53.144;7.570;2023-08-24T18:06:08;22.65;93.97
14154;DHT22;7157;53.144;7.570;2023-08-24T18:16:12;22.60;94.56
14154;DHT22;7157;53.144;7.570;2023-08-24T18:26:15;22.56;94.85
14154;DHT22;7157;53.144;7.570;2023-08-24T18:36:19;22.53;94.91
14154;DHT22;7157;53.144;7.570;2023-08-24T18:46:22;22.39;95.74
14154;DHT22;7157;53.144;7.570;2023-08-24T18:56:26;22.34;96.03
14154;DHT22;7157;53.144;7.570;2023-08-24T19:06:30;22.26;96.41
14154;DHT22;7157;53.144;7.570;2023-08-24T19:16:47;22.12;96.74
14154;DHT22;7157;53.144;7.570;2023-08-24T19:26:50;21.91;97.87
14154;DHT22;7157;53.144;7.570;2023-08-24T19:36:54;21.88;97.78
14154;DHT22;7157;53.144;7.570;2023-08-24T19:46:57;21.84;97.46
14154;DHT22;7157;53.144;7.570;2023-08-24T19:57:01;21.72;97.52
14154;DHT22;7157;53.144;7.570;2023-08-24T20:07:04;21.64;97.55
14154;DHT22;7157;53.144;7.570;2023-08-24T20:17:08;21.64;97.67
14154;DHT22;7157;53.144;7.570;2023-08-24T20:27:11;21.61;97.78
14154;DHT22;7157;53.144;7.570;2023-08-24T20:37:15;21.60;98.03
14154;DHT22;7157;53.144;7.570;2023-08-24T20:47:19;21.58;98.23
14154;DHT22;7157;53.144;7.570;2023-08-24T20:57:23;21.58;98.44
14154;DHT22;7157;53.144;7.570;2023-08-24T21:07:26;21.67;98.34
14154;DHT22;7157;53.144;7.570;2023-08-24T21:17:31;21.77;98.13
14154;DHT22;7157;53.144;7.570;2023-08-24T21:27:34;21.89;97.57
14154;DHT22;7157;53.144;7.570;2023-08-24T21:37:38;21.89;97.47
14154;DHT22;7157;53.144;7.570;2023-08-24T21:47:41;21.83;97.45
14154;DHT22;7157;53.144;7.570;2023-08-24T21:57:45;21.81;97.45
14154;DHT22;7157;53.144;7.570;2023-08-24T22:07:48;21.70;97.69
14154;DHT22;7157;53.144;7.570;2023-08-24T22:17:52;21.69;97.76
14154;DHT22;7157;53.144;7.570;2023-08-24T22:27:56;21.73;97.46
14154;DHT22;7157;53.144;7.570;2023-08-24T22:38:00;21.70;97.52
14154;DHT22;7157;53.144;7.570;2023-08-24T22:48:04;21.51;98.21
14154;DHT22;7157;53.144;7.570;2023-08-24T22:58:08;21.36;98.85
14154;DHT22;7157;53.144;7.570;2023-08-24T23:08:11;21.37;98.66
14154;DHT22;7157;53.144;7.570;2023-08-24T23:18:15;21.30;99.14
14154;DHT22;7157;53.144;7.570;2023-08-24T23:28:18;21.28;99.18
14154;DHT22;7157;53.144;7.570;2023-08-24T23:38:22;21.23;99.14
14154;DHT22;7157;53.144;7.570;2023-08-24T23:48:25;21.19;99.12
14154;DHT22;7157;53.144;7.570;2023-08-24T23:58:29;21.17;99.04
